Terminal Aerodrome Forecast
Issued by NWS

Home | Current Version | Previous Version | Text Only | Print | Product List | Glossary On
Versions: 1 2 3 4 5 6 7 8 9 10 11 12
928
FTUS44 KTSA 260631 AAA
TAFRVS
TAF AMD
KRVS 260631Z 2607/2706 VRB03KT P6SM SCT015 BKN025
     FM261500 35012G20KT P6SM VCSH BKN012
     FM262100 33011G18KT P6SM BKN025
     FM270000 30005KT P6SM BKN035=

USA.gov is the U.S. government's official web portal to all federal, state and local government web resources and services.